createdAt,value
2019-01-28T00:02:09.041Z,96869.67
2019-01-28T00:04:39.588Z,96868.55
2019-01-28T00:07:09.977Z,96867.03
2019-01-28T00:09:40.008Z,96870.87
2019-01-28T00:12:10.588Z,96870.87
2019-01-28T00:14:40.401Z,96879.61
2019-01-28T00:17:10.506Z,96889.95
2019-01-28T00:19:40.463Z,96893.06
2019-01-28T00:22:10.911Z,96900.05
2019-01-28T00:24:40.935Z,96902.94
2019-01-28T00:27:12.099Z,96905.92
2019-01-28T00:29:42.370Z,96907.52
2019-01-28T00:32:12.246Z,96904.91
2019-01-28T00:34:42.399Z,96898.41
2019-01-28T00:37:12.570Z,96907.27
2019-01-28T00:39:42.537Z,96917.89
2019-01-28T00:42:12.348Z,96921.77
2019-01-28T00:44:42.230Z,96923.86
2019-01-28T00:47:12.246Z,96925.67
2019-01-28T00:49:42.469Z,96926.03
2019-01-28T00:52:12.333Z,96930.63
2019-01-28T00:54:42.331Z,96936.35
2019-01-28T00:57:14.020Z,96935.67
2019-01-28T00:59:44.228Z,96938.16
2019-01-28T01:02:14.196Z,96943.64
2019-01-28T01:04:44.482Z,96949.91
2019-01-28T01:07:14.418Z,96948.00
2019-01-28T01:09:44.349Z,96956.34
2019-01-28T01:12:14.532Z,96953.58
2019-01-28T01:14:44.475Z,96965.44
2019-01-28T01:17:14.445Z,96970.00
2019-01-28T01:19:44.495Z,96971.77
2019-01-28T01:22:14.358Z,96972.89
2019-01-28T01:24:44.511Z,96984.86
2019-01-28T01:27:14.374Z,96978.05
2019-01-28T01:29:44.204Z,96988.20
2019-01-28T01:32:14.449Z,96989.20
2019-01-28T01:34:44.415Z,96954.92
2019-01-28T01:37:14.235Z,96998.98
2019-01-28T01:39:44.462Z,96991.70
2019-01-28T01:42:14.489Z,96999.11
2019-01-28T01:44:44.438Z,96996.55
2019-01-28T01:47:14.581Z,96992.50
2019-01-28T01:49:44.430Z,96991.31
2019-01-28T01:52:14.224Z,96986.86
2019-01-28T01:54:44.346Z,96985.78
2019-01-28T01:57:15.465Z,96983.97
2019-01-28T01:59:45.347Z,96981.32
2019-01-28T02:02:15.634Z,96976.30
2019-01-28T02:04:45.579Z,96980.75
2019-01-28T02:07:17.463Z,96987.22
2019-01-28T02:09:47.745Z,96988.75
2019-01-28T02:12:19.234Z,96999.37
2019-01-28T02:14:49.028Z,97002.17
2019-01-28T02:17:19.258Z,97003.91
2019-01-28T02:19:52.627Z,97004.53
2019-01-28T02:22:22.751Z,97011.52
2019-01-28T02:24:54.178Z,97010.85
2019-01-28T02:27:25.007Z,97014.56
2019-01-28T02:29:55.474Z,97022.67
2019-01-28T02:32:25.458Z,97011.94
2019-01-28T02:34:56.550Z,97010.78
2019-01-28T02:37:26.646Z,97014.30
2019-01-28T02:39:59.436Z,97022.25
2019-01-28T02:42:30.577Z,97012.81
2019-01-28T02:45:00.443Z,97012.19
2019-01-28T02:47:30.373Z,97016.88
2019-01-28T02:50:01.769Z,97013.56
2019-01-28T02:52:31.580Z,97014.64
2019-01-28T02:55:01.355Z,97011.16
2019-01-28T02:57:32.151Z,96944.98
2019-01-28T03:00:02.125Z,97013.36
2019-01-28T03:02:31.939Z,97011.30
2019-01-28T03:05:02.914Z,97006.13
2019-01-28T03:07:32.815Z,97006.00
2019-01-28T03:10:05.955Z,97010.39
2019-01-28T03:12:36.387Z,97000.12
2019-01-28T03:15:06.954Z,97013.39
2019-01-28T03:17:36.777Z,96991.42
2019-01-28T03:20:08.177Z,97001.80
2019-01-28T03:22:38.428Z,97004.38
2019-01-28T03:25:09.294Z,96997.34
2019-01-28T03:27:40.437Z,96999.30
2019-01-28T03:30:13.452Z,96995.22
2019-01-28T03:32:43.788Z,96993.83
2019-01-28T03:35:16.646Z,96991.52
2019-01-28T03:37:46.431Z,97000.97
2019-01-28T03:40:18.543Z,96993.22
2019-01-28T03:42:48.473Z,96998.59
2019-01-28T03:45:22.582Z,97004.28
2019-01-28T03:47:52.987Z,96995.91
2019-01-28T03:50:33.085Z,96994.42
2019-01-28T03:53:03.042Z,96987.31
2019-01-28T03:55:32.923Z,96985.03
2019-01-28T03:58:03.484Z,96982.97
2019-01-28T04:00:33.820Z,96991.92
2019-01-28T04:03:04.194Z,96991.70
2019-01-28T04:05:34.445Z,96990.75
2019-01-28T04:08:05.669Z,96985.31
2019-01-28T04:10:35.672Z,96983.48
2019-01-28T04:13:05.953Z,96974.95
2019-01-28T04:15:37.349Z,96981.48
2019-01-28T04:18:07.375Z,96973.48
2019-01-28T04:20:38.674Z,96974.72
2019-01-28T04:23:09.255Z,96969.34
2019-01-28T04:25:39.583Z,96970.33
2019-01-28T04:28:10.739Z,96962.06
2019-01-28T04:30:40.775Z,96972.27
2019-01-28T04:33:11.221Z,96975.87
2019-01-28T04:35:41.040Z,96975.09
2019-01-28T04:38:10.980Z,96968.30
2019-01-28T04:40:41.244Z,96971.42
2019-01-28T04:43:11.078Z,96966.88
2019-01-28T04:45:40.982Z,96962.99
2019-01-28T04:48:10.852Z,96968.66
2019-01-28T04:50:40.771Z,96973.98
2019-01-28T04:53:10.549Z,96977.77
2019-01-28T04:55:41.235Z,96977.27
2019-01-28T04:58:12.419Z,96969.67
2019-01-28T05:00:42.294Z,96969.03
2019-01-28T05:03:15.937Z,96963.84
2019-01-28T05:05:45.855Z,96967.42
2019-01-28T05:08:15.655Z,96968.63
2019-01-28T05:10:47.748Z,96969.92
2019-01-28T05:13:17.583Z,96980.89
2019-01-28T05:15:52.299Z,96980.54
2019-01-28T05:18:22.247Z,96980.88
2019-01-28T05:20:53.194Z,96978.08
2019-01-28T05:23:24.356Z,96992.63
2019-01-28T05:25:54.166Z,96967.83
2019-01-28T05:28:24.034Z,96971.38
2019-01-28T05:30:53.934Z,96956.09
2019-01-28T05:33:23.884Z,96950.91
2019-01-28T05:35:53.712Z,96947.64
2019-01-28T05:38:24.836Z,96952.33
2019-01-28T05:40:55.092Z,96955.13
2019-01-28T05:43:26.155Z,96958.48
2019-01-28T05:45:56.118Z,96950.16
2019-01-28T05:48:26.929Z,96964.67
2019-01-28T05:50:56.716Z,96949.33
2019-01-28T05:53:26.915Z,96936.63
2019-01-28T05:55:57.952Z,96939.23
2019-01-28T05:58:27.942Z,96941.98
2019-01-28T06:00:59.052Z,96942.46
2019-01-28T06:03:29.191Z,96950.98
2019-01-28T06:06:00.890Z,96949.33
2019-01-28T06:08:30.887Z,96954.85
2019-01-28T06:11:05.052Z,96950.48
2019-01-28T06:13:35.090Z,96951.64
2019-01-28T06:16:06.448Z,96957.47
2019-01-28T06:18:37.489Z,96951.40
2019-01-28T06:21:08.736Z,96877.84
2019-01-28T06:23:39.716Z,96955.53
2019-01-28T06:26:09.717Z,96954.95
2019-01-28T06:28:43.188Z,96955.81
2019-01-28T06:31:15.536Z,96955.09
2019-01-28T06:33:45.513Z,96958.24
2019-01-28T06:36:16.138Z,96961.25
2019-01-28T06:38:48.811Z,96955.33
2019-01-28T06:41:18.630Z,96956.75
2019-01-28T06:43:48.438Z,96963.02
2019-01-28T06:46:18.283Z,96960.92
2019-01-28T06:48:48.138Z,96960.91
2019-01-28T06:51:18.348Z,96955.22
2019-01-28T06:53:48.235Z,96963.02
2019-01-28T06:56:21.187Z,96967.70
2019-01-28T06:58:51.012Z,96950.24
2019-01-28T07:01:20.980Z,96940.81
2019-01-28T07:03:53.927Z,96953.35
2019-01-28T07:06:25.212Z,96950.47
2019-01-28T07:08:56.385Z,96956.80
2019-01-28T07:11:27.205Z,96956.80
2019-01-28T07:13:57.077Z,96960.02
2019-01-28T07:16:27.044Z,96956.58
2019-01-28T07:18:58.004Z,96955.84
2019-01-28T07:21:29.307Z,96950.30
2019-01-28T07:23:59.227Z,96947.70
2019-01-28T07:26:29.527Z,96947.70
2019-01-28T07:29:02.884Z,96949.52
2019-01-28T07:31:33.018Z,96953.63
2019-01-28T07:34:03.258Z,96951.83
2019-01-28T07:36:33.215Z,96954.04
2019-01-28T07:39:03.893Z,96950.88
2019-01-28T07:41:34.153Z,96950.47
2019-01-28T07:44:04.332Z,96956.56
2019-01-28T07:46:38.266Z,96951.83
2019-01-28T07:49:08.367Z,96967.02
2019-01-28T07:51:38.444Z,96949.17
2019-01-28T07:54:10.040Z,96951.87
2019-01-28T07:56:43.149Z,96956.72
2019-01-28T07:59:14.391Z,96958.52
2019-01-28T08:01:44.226Z,96957.79
2019-01-28T08:04:14.393Z,96954.20
2019-01-28T08:06:44.374Z,96950.16
2019-01-28T08:09:15.407Z,96943.52
2019-01-28T08:11:45.479Z,96948.19
2019-01-28T08:14:15.392Z,96948.19
2019-01-28T08:16:45.446Z,96942.24
2019-01-28T08:19:15.329Z,96928.76
2019-01-28T08:21:45.442Z,96928.17
2019-01-28T08:24:16.555Z,96931.28
2019-01-28T08:26:46.882Z,96931.28
2019-01-28T08:29:16.817Z,96926.16
2019-01-28T08:31:47.232Z,96927.73
2019-01-28T08:34:17.300Z,96938.09
2019-01-28T08:36:47.157Z,96927.05
2019-01-28T08:39:17.521Z,96928.10
2019-01-28T08:41:48.244Z,96920.77
2019-01-28T08:44:18.762Z,96922.31
2019-01-28T08:46:49.144Z,96920.59
2019-01-28T08:49:19.324Z,96912.59
2019-01-28T08:51:49.169Z,96912.72
2019-01-28T08:54:22.348Z,96915.36
2019-01-28T08:56:52.761Z,96915.08
2019-01-28T08:59:22.796Z,96913.78
2019-01-28T09:01:52.667Z,96910.73
2019-01-28T09:04:23.247Z,96908.41
2019-01-28T09:06:53.133Z,96908.41
2019-01-28T09:09:23.045Z,96899.14
2019-01-28T09:11:53.835Z,96895.61
2019-01-28T09:14:23.649Z,96895.61
2019-01-28T09:16:53.943Z,96906.77
2019-01-28T09:19:23.816Z,96911.33
2019-01-28T09:21:55.284Z,96911.33
2019-01-28T09:24:25.786Z,96905.61
2019-01-28T09:26:55.782Z,96905.54
2019-01-28T09:29:25.708Z,96892.02
2019-01-28T09:31:55.979Z,96898.05
2019-01-28T09:34:26.142Z,96898.05
2019-01-28T09:36:57.368Z,96885.55
2019-01-28T09:39:27.816Z,96899.03
2019-01-28T09:41:57.671Z,96895.77
2019-01-28T09:44:28.471Z,96895.22
2019-01-28T09:46:58.868Z,96897.06
2019-01-28T09:49:28.851Z,96897.06
2019-01-28T09:51:59.610Z,96908.77
2019-01-28T09:54:30.013Z,96896.44
2019-01-28T09:57:01.658Z,96893.24
2019-01-28T09:59:35.112Z,96901.95
2019-01-28T10:02:06.258Z,96897.73
2019-01-28T10:04:38.217Z,96897.73
2019-01-28T10:07:08.547Z,96896.54
2019-01-28T10:09:38.501Z,96900.03
2019-01-28T10:12:09.280Z,96900.03
2019-01-28T10:14:41.937Z,96892.70
2019-01-28T10:17:15.373Z,96898.73
2019-01-28T10:19:46.090Z,96898.73
2019-01-28T10:22:18.000Z,96818.14
2019-01-28T10:24:47.980Z,96818.14
2019-01-28T10:27:23.208Z,96899.67
2019-01-28T10:29:53.310Z,96899.67
2019-01-28T10:32:23.513Z,96896.00
2019-01-28T10:34:54.622Z,96914.23
2019-01-28T10:37:25.658Z,96914.23
2019-01-28T10:39:57.546Z,96898.97
2019-01-28T10:42:29.533Z,96898.97
2019-01-28T10:44:59.550Z,96893.80
2019-01-28T10:47:30.256Z,96883.66
2019-01-28T10:50:04.330Z,96883.66
2019-01-28T10:52:38.149Z,96896.22
2019-01-28T10:55:10.133Z,96886.41
2019-01-28T10:57:40.775Z,96890.12
2019-01-28T11:00:17.817Z,96894.05
2019-01-28T11:02:48.243Z,96878.67
2019-01-28T11:05:20.899Z,96878.67
2019-01-28T11:07:51.087Z,96871.56
2019-01-28T11:10:26.055Z,96880.19
2019-01-28T11:12:58.055Z,96880.19
2019-01-28T11:15:30.364Z,96872.95
2019-01-28T11:18:03.690Z,96864.32
2019-01-28T11:20:34.595Z,96864.44
2019-01-28T11:23:04.996Z,96877.39
2019-01-28T11:25:36.996Z,96843.88
2019-01-28T11:28:11.030Z,96865.48
2019-01-28T11:30:54.964Z,96866.38
2019-01-28T11:33:28.428Z,96866.38
2019-01-28T11:36:05.466Z,96854.53
2019-01-28T11:38:33.154Z,96852.36
2019-01-28T11:41:07.354Z,96857.53
2019-01-28T11:43:39.965Z,96857.53
2019-01-28T11:46:15.111Z,96858.53
2019-01-28T11:48:48.429Z,96858.53
2019-01-28T11:51:21.874Z,96865.03
2019-01-28T11:53:52.451Z,96865.03
2019-01-28T11:56:23.033Z,96863.58
2019-01-28T11:58:57.546Z,96856.34
2019-01-28T12:01:32.527Z,96853.02
2019-01-28T12:04:04.599Z,96849.37
2019-01-28T12:06:35.781Z,96849.37
2019-01-28T12:09:12.732Z,96857.45
2019-01-28T12:11:43.599Z,96856.72
2019-01-28T12:14:17.930Z,96851.80
2019-01-28T12:16:49.261Z,96843.47
2019-01-28T12:19:21.309Z,96868.27
2019-01-28T12:21:51.847Z,96860.47
2019-01-28T12:24:21.962Z,96865.89
2019-01-28T12:26:53.359Z,96859.63
2019-01-28T12:29:27.554Z,96865.92
2019-01-28T12:32:01.141Z,96867.79
2019-01-28T12:34:32.767Z,96858.94
2019-01-28T12:37:04.472Z,96869.39
2019-01-28T12:39:39.488Z,96862.83
2019-01-28T12:42:14.648Z,96864.11
2019-01-28T12:44:46.279Z,96879.52
2019-01-28T12:47:16.694Z,96876.91
2019-01-28T12:49:47.597Z,96876.59
2019-01-28T12:52:19.001Z,96878.38
2019-01-28T12:54:50.750Z,96876.08
2019-01-28T12:57:21.886Z,96875.77
2019-01-28T12:59:52.719Z,96876.30
2019-01-28T13:02:25.471Z,96884.33
2019-01-28T13:04:57.502Z,96878.28
2019-01-28T13:07:30.301Z,96876.41
2019-01-28T13:10:01.431Z,96883.18
2019-01-28T13:12:33.933Z,96880.58
2019-01-28T13:15:10.468Z,96882.94
2019-01-28T13:17:42.355Z,96869.62
2019-01-28T13:20:18.665Z,96877.97
2019-01-28T13:22:49.868Z,96871.86
2019-01-28T13:25:24.403Z,96883.92
2019-01-28T13:27:55.747Z,96881.72
2019-01-28T13:30:32.343Z,96887.52
2019-01-28T13:33:05.964Z,96900.27
2019-01-28T13:35:40.184Z,96884.56
2019-01-28T13:38:11.422Z,96897.51
2019-01-28T13:40:45.285Z,96897.29
2019-01-28T13:43:24.991Z,96894.26
2019-01-28T13:45:58.041Z,96904.17
2019-01-28T13:48:30.298Z,96902.31
2019-01-28T13:51:01.344Z,96916.02
2019-01-28T13:53:36.981Z,96905.02
2019-01-28T13:56:08.111Z,96911.00
2019-01-28T13:58:41.713Z,96917.71
2019-01-28T14:01:15.080Z,96776.27
2019-01-28T14:03:45.573Z,96925.52
2019-01-28T14:06:17.891Z,96927.58
2019-01-28T14:08:49.099Z,96927.64
2019-01-28T14:11:22.907Z,96925.34
2019-01-28T14:13:54.905Z,96925.34
2019-01-28T14:16:27.719Z,96935.03
2019-01-28T14:19:15.113Z,96935.03
2019-01-28T14:21:52.969Z,96944.69
2019-01-28T14:24:31.561Z,96944.69
2019-01-28T14:27:12.766Z,96947.88
2019-01-28T14:30:03.198Z,96949.53
2019-01-28T14:32:31.021Z,96955.80
2019-01-28T14:35:15.035Z,96954.98
2019-01-28T14:37:52.508Z,96955.63
2019-01-28T14:40:31.519Z,96971.06
2019-01-28T14:43:03.935Z,96962.02
2019-01-28T14:45:35.948Z,96962.02
2019-01-28T14:48:08.069Z,96971.29
2019-01-28T14:50:42.084Z,96975.98
2019-01-28T14:53:15.961Z,96981.31
2019-01-28T14:55:53.777Z,96976.68
2019-01-28T14:58:27.591Z,96981.58
2019-01-28T15:01:03.490Z,96986.84
2019-01-28T15:03:52.181Z,96985.27
2019-01-28T15:06:25.323Z,96989.95
2019-01-28T15:09:04.006Z,96992.34
2019-01-28T15:11:37.592Z,96994.55
2019-01-28T15:14:14.148Z,97005.58
2019-01-28T15:16:55.005Z,96999.55
2019-01-28T15:19:26.972Z,97005.84
2019-01-28T15:21:59.861Z,97000.83
2019-01-28T15:24:30.657Z,97006.75
2019-01-28T15:27:02.291Z,97005.30
2019-01-28T15:29:46.322Z,97008.78
2019-01-28T15:32:18.695Z,97005.17
2019-01-28T15:34:51.228Z,97014.28
2019-01-28T15:37:26.325Z,97020.31
2019-01-28T15:40:01.182Z,97025.56
2019-01-28T15:42:33.962Z,97025.96
2019-01-28T15:45:13.332Z,97030.75
2019-01-28T15:47:45.805Z,97038.26
2019-01-28T15:50:19.822Z,97040.09
2019-01-28T15:52:53.097Z,97047.20
2019-01-28T15:55:32.285Z,97045.69
2019-01-28T15:58:05.891Z,97049.02
2019-01-28T16:00:38.031Z,97053.63
2019-01-28T16:03:12.700Z,97056.70
2019-01-28T16:05:44.561Z,97061.27
2019-01-28T16:08:18.272Z,97072.80
2019-01-28T16:10:54.420Z,97071.86
2019-01-28T16:13:30.977Z,97079.67
2019-01-28T16:16:12.638Z,97086.00
2019-01-28T16:18:44.991Z,97091.41
2019-01-28T16:21:19.272Z,97100.30
2019-01-28T16:23:52.935Z,97099.51
2019-01-28T16:26:29.738Z,97100.08
2019-01-28T16:29:01.831Z,97110.31
2019-01-28T16:31:33.469Z,97111.97
2019-01-28T16:34:07.104Z,97120.06
2019-01-28T16:36:39.265Z,97124.31
2019-01-28T16:39:12.573Z,97132.09
2019-01-28T16:41:43.638Z,97130.81
2019-01-28T16:44:16.813Z,97141.48
2019-01-28T16:46:49.129Z,97142.05
2019-01-28T16:49:20.838Z,97147.34
2019-01-28T16:51:52.848Z,97149.15
2019-01-28T16:54:29.074Z,97152.03
2019-01-28T16:57:03.918Z,97079.44
2019-01-28T16:59:35.214Z,97170.34
2019-01-28T17:02:15.611Z,97152.08
2019-01-28T17:04:46.791Z,97171.42
2019-01-28T17:07:18.954Z,97174.32
2019-01-28T17:09:51.953Z,97187.08
2019-01-28T17:12:23.277Z,97192.49
2019-01-28T17:14:56.911Z,97192.69
2019-01-28T17:17:34.945Z,97201.02
2019-01-28T17:20:10.969Z,97199.35
2019-01-28T17:22:42.074Z,97203.22
2019-01-28T17:25:14.962Z,97134.33
2019-01-28T17:27:51.649Z,97210.78
2019-01-28T17:30:29.498Z,97211.36
2019-01-28T17:33:03.480Z,97220.00
2019-01-28T17:35:39.359Z,97221.15
2019-01-28T17:38:13.495Z,97224.77
2019-01-28T17:40:55.695Z,97232.01
2019-01-28T17:43:38.964Z,97238.72
2019-01-28T17:46:11.206Z,97240.11
2019-01-28T17:48:45.761Z,97249.27
2019-01-28T17:51:25.282Z,97246.83
2019-01-28T17:54:00.061Z,97266.70
2019-01-28T17:56:33.904Z,97261.20
2019-01-28T17:59:12.596Z,97270.09
2019-01-28T18:01:44.155Z,97266.95
2019-01-28T18:04:25.552Z,97278.95
2019-01-28T18:06:59.628Z,97272.06
2019-01-28T18:09:36.483Z,97278.93
2019-01-28T18:12:12.007Z,97285.52
2019-01-28T18:14:43.847Z,97291.06
2019-01-28T18:17:20.271Z,97296.00
2019-01-28T18:19:52.739Z,97292.58
2019-01-28T18:22:43.061Z,97304.95
2019-01-28T18:25:23.426Z,97303.69
2019-01-28T18:27:54.761Z,97315.06
2019-01-28T18:30:46.881Z,97314.10
2019-01-28T18:33:23.745Z,97322.40
2019-01-28T18:36:11.013Z,97325.75
2019-01-28T18:38:46.714Z,97324.55
2019-01-28T18:41:22.796Z,97332.16
2019-01-28T18:44:17.737Z,97338.75
2019-01-28T18:46:56.030Z,97351.39
2019-01-28T18:49:42.791Z,97358.17
2019-01-28T18:52:16.285Z,97366.69
2019-01-28T18:54:51.259Z,97363.36
2019-01-28T18:57:33.269Z,97370.05
2019-01-28T19:00:11.642Z,97374.96
2019-01-28T19:02:47.232Z,97380.25
2019-01-28T19:05:45.126Z,97376.36
2019-01-28T19:08:38.245Z,97391.95
2019-01-28T19:11:36.143Z,97400.72
2019-01-28T19:14:20.758Z,97394.05
2019-01-28T19:17:19.833Z,97406.31
2019-01-28T19:20:22.064Z,97413.59
2019-01-28T19:23:02.891Z,97419.30
2019-01-28T19:25:35.204Z,97422.44
2019-01-28T19:28:06.567Z,97423.53
2019-01-28T19:30:38.480Z,97431.11
2019-01-28T19:33:12.103Z,97441.48
2019-01-28T19:35:43.316Z,97449.39
2019-01-28T19:38:16.431Z,97453.00
2019-01-28T19:40:50.608Z,97455.59
2019-01-28T19:43:26.060Z,97480.95
2019-01-28T19:46:01.989Z,97476.95
2019-01-28T19:48:41.214Z,97486.25
2019-01-28T19:51:17.583Z,97486.36
2019-01-28T19:53:49.052Z,97497.75
2019-01-28T19:56:23.143Z,97503.02
2019-01-28T19:59:00.579Z,97523.58
2019-01-28T20:01:31.864Z,97528.50
2019-01-28T20:04:03.738Z,97516.06
2019-01-28T20:06:36.375Z,97523.97
2019-01-28T20:09:17.054Z,97532.42
2019-01-28T20:11:54.182Z,97534.19
2019-01-28T20:14:28.546Z,97528.55
2019-01-28T20:17:10.905Z,97546.58
2019-01-28T20:19:46.360Z,97471.80
2019-01-28T20:22:17.892Z,97553.35
2019-01-28T20:24:49.560Z,97567.01
2019-01-28T20:27:20.443Z,97568.25
2019-01-28T20:29:52.659Z,97563.62
2019-01-28T20:32:25.430Z,97579.18
2019-01-28T20:34:56.824Z,97585.48
2019-01-28T20:37:28.242Z,97591.04
2019-01-28T20:39:58.839Z,97599.52
2019-01-28T20:42:29.919Z,97600.77
2019-01-28T20:45:01.327Z,97607.11
2019-01-28T20:47:32.430Z,97612.30
2019-01-28T20:50:05.735Z,97621.70
2019-01-28T20:52:38.756Z,97635.05
2019-01-28T20:55:11.271Z,97631.78
2019-01-28T20:57:42.039Z,97636.02
2019-01-28T21:00:17.708Z,97638.77
2019-01-28T21:02:49.307Z,97648.89
2019-01-28T21:05:23.323Z,97673.16
2019-01-28T21:07:53.857Z,97667.73
2019-01-28T21:10:26.076Z,97666.88
2019-01-28T21:12:58.088Z,97676.94
2019-01-28T21:15:29.895Z,97680.33
2019-01-28T21:18:00.520Z,97686.51
2019-01-28T21:20:31.767Z,97591.83
2019-01-28T21:23:02.058Z,97686.71
2019-01-28T21:25:34.149Z,97695.88
2019-01-28T21:28:05.268Z,97705.44
2019-01-28T21:30:36.460Z,97730.01
2019-01-28T21:33:07.069Z,97714.21
2019-01-28T21:35:51.382Z,97714.32
2019-01-28T21:38:29.454Z,97637.62
2019-01-28T21:41:00.229Z,97725.09
2019-01-28T21:43:33.504Z,97730.57
2019-01-28T21:46:22.339Z,97743.83
2019-01-28T21:48:53.807Z,97745.48
2019-01-28T21:51:25.251Z,97746.23
2019-01-28T21:53:55.766Z,97743.64
2019-01-28T21:56:28.383Z,97751.91
2019-01-28T21:59:02.499Z,97761.39
2019-01-28T22:01:34.727Z,97768.42
2019-01-28T22:04:06.420Z,97766.92
2019-01-28T22:06:37.647Z,97776.35
2019-01-28T22:09:10.961Z,97769.88
2019-01-28T22:11:49.702Z,97776.20
2019-01-28T22:14:21.096Z,97778.35
2019-01-28T22:16:52.963Z,97786.61
2019-01-28T22:19:25.081Z,97789.91
2019-01-28T22:21:59.323Z,97793.45
2019-01-28T22:24:31.866Z,97797.33
2019-01-28T22:27:05.039Z,97800.25
2019-01-28T22:29:37.147Z,97801.65
2019-01-28T22:32:08.614Z,97810.09
2019-01-28T22:34:47.478Z,97814.50
2019-01-28T22:37:12.352Z,97820.12
2019-01-28T22:39:43.377Z,97822.59
2019-01-28T22:42:21.246Z,97832.45
2019-01-28T22:44:50.427Z,97837.64
2019-01-28T22:47:22.603Z,97842.83
2019-01-28T22:49:59.115Z,97845.25
2019-01-28T22:52:37.154Z,97847.95
2019-01-28T22:55:09.790Z,97850.73
2019-01-28T22:57:43.155Z,97860.84
2019-01-28T23:00:43.852Z,97865.92
2019-01-28T23:03:19.982Z,97862.39
2019-01-28T23:05:51.749Z,97876.24
2019-01-28T23:08:25.877Z,97882.97
2019-01-28T23:10:59.085Z,97883.93
2019-01-28T23:13:31.361Z,97887.84
2019-01-28T23:16:02.908Z,97885.23
2019-01-28T23:18:33.954Z,97886.92
2019-01-28T23:21:05.688Z,97899.13
2019-01-28T23:23:37.567Z,97904.11
2019-01-28T23:26:09.234Z,97902.77
2019-01-28T23:28:40.446Z,97898.61
2019-01-28T23:31:15.009Z,97898.91
2019-01-28T23:33:46.390Z,97908.49
2019-01-28T23:36:27.246Z,97909.09
2019-01-28T23:39:04.841Z,97910.69
2019-01-28T23:41:39.601Z,97828.06
2019-01-28T23:44:12.200Z,97926.17
2019-01-28T23:46:45.308Z,97929.11
2019-01-28T23:49:18.958Z,97935.41
2019-01-28T23:51:51.727Z,97931.84
2019-01-28T23:54:26.689Z,97940.55
2019-01-28T23:56:58.910Z,97944.16
2019-01-28T23:59:31.401Z,97944.67
